createdAt,value
2023-06-17T00:01:06.644Z,18.47
2023-06-17T00:03:33.191Z,18.39
2023-06-17T00:05:59.642Z,18.26
2023-06-17T00:08:26.185Z,18.40
2023-06-17T00:10:52.678Z,18.45
2023-06-17T00:13:20.921Z,18.29
2023-06-17T00:15:49.260Z,18.20
2023-06-17T00:18:20.478Z,18.27
2023-06-17T00:20:48.168Z,18.27
2023-06-17T00:23:14.749Z,18.14
2023-06-17T00:25:41.253Z,18.04
2023-06-17T00:28:07.711Z,18.06
2023-06-17T00:30:34.193Z,18.12
2023-06-17T00:33:00.815Z,18.02
2023-06-17T00:35:27.400Z,18.03
2023-06-17T00:37:53.920Z,17.87
2023-06-17T00:40:20.676Z,17.88
2023-06-17T00:42:47.422Z,17.85
2023-06-17T00:45:13.920Z,17.79
2023-06-17T00:47:40.700Z,17.78
2023-06-17T00:50:09.617Z,17.72
2023-06-17T00:52:42.616Z,17.72
2023-06-17T00:55:10.589Z,17.75
2023-06-17T00:57:38.512Z,17.73
2023-06-17T01:00:11.411Z,17.65
2023-06-17T01:02:41.972Z,17.71
2023-06-17T01:05:12.928Z,17.61
2023-06-17T01:07:47.455Z,17.59
2023-06-17T01:10:18.768Z,17.46
2023-06-17T01:12:47.386Z,17.54
2023-06-17T01:15:17.218Z,17.51
2023-06-17T01:17:45.588Z,17.45
2023-06-17T01:20:14.120Z,17.49
2023-06-17T01:22:41.348Z,17.43
2023-06-17T01:25:09.845Z,17.45
2023-06-17T01:27:36.967Z,17.48
2023-06-17T01:30:04.123Z,17.54
2023-06-17T01:32:30.754Z,17.45
2023-06-17T01:35:02.629Z,17.51
2023-06-17T01:37:41.370Z,17.54
2023-06-17T01:40:11.471Z,17.45
2023-06-17T01:42:41.808Z,17.56
2023-06-17T01:45:08.870Z,17.53
2023-06-17T01:47:35.655Z,17.57
2023-06-17T01:50:03.989Z,17.60
2023-06-17T01:52:30.467Z,17.62
2023-06-17T01:54:57.767Z,17.59
2023-06-17T01:57:24.400Z,17.67
2023-06-17T01:59:50.872Z,17.67
2023-06-17T02:02:17.458Z,17.64
2023-06-17T02:04:44.018Z,17.55
2023-06-17T02:07:11.432Z,17.55
2023-06-17T02:09:38.767Z,17.47
2023-06-17T02:12:06.507Z,17.35
2023-06-17T02:14:34.274Z,17.41
2023-06-17T02:17:01.265Z,17.42
2023-06-17T02:19:30.039Z,17.23
2023-06-17T02:21:56.836Z,17.29
2023-06-17T02:24:23.710Z,17.29
2023-06-17T02:26:51.451Z,17.23
2023-06-17T02:29:18.540Z,17.21
2023-06-17T02:31:45.085Z,17.25
2023-06-17T02:34:11.951Z,17.20
2023-06-17T02:36:39.654Z,17.18
2023-06-17T02:39:07.312Z,17.01
2023-06-17T02:41:34.212Z,17.10
2023-06-17T02:44:01.063Z,17.18
2023-06-17T02:46:28.266Z,17.10
2023-06-17T02:48:56.041Z,17.09
2023-06-17T02:51:23.324Z,17.05
2023-06-17T02:53:52.102Z,16.96
2023-06-17T02:56:18.706Z,17.06
2023-06-17T02:58:46.741Z,17.00
2023-06-17T03:01:13.883Z,16.89
2023-06-17T03:03:42.928Z,16.93
2023-06-17T03:06:10.368Z,16.95
2023-06-17T03:08:38.932Z,17.06
2023-06-17T03:11:05.720Z,17.03
2023-06-17T03:13:32.383Z,17.03
2023-06-17T03:16:00.491Z,17.01
2023-06-17T03:18:27.487Z,17.04
2023-06-17T03:20:54.645Z,17.05
2023-06-17T03:23:23.723Z,17.02
2023-06-17T03:25:51.253Z,17.03
2023-06-17T03:28:18.704Z,17.07
2023-06-17T03:30:45.766Z,17.01
2023-06-17T03:33:13.567Z,16.97
2023-06-17T03:35:40.443Z,16.97
2023-06-17T03:38:07.088Z,17.06
2023-06-17T03:40:33.558Z,16.97
2023-06-17T03:43:00.209Z,17.00
2023-06-17T03:45:26.772Z,17.01
2023-06-17T03:47:53.259Z,16.96
2023-06-17T03:50:20.079Z,16.92
2023-06-17T03:52:46.794Z,16.91
2023-06-17T03:55:13.795Z,16.99
2023-06-17T03:57:41.351Z,17.09
2023-06-17T04:00:09.151Z,17.15
2023-06-17T04:02:35.906Z,17.16
2023-06-17T04:05:03.370Z,17.08
2023-06-17T04:07:29.882Z,17.11
2023-06-17T04:10:06.277Z,17.13
2023-06-17T04:12:36.440Z,17.09
2023-06-17T04:15:02.939Z,17.16
2023-06-17T04:17:29.510Z,17.20
2023-06-17T04:19:57.519Z,17.22
2023-06-17T04:22:24.058Z,17.29
2023-06-17T04:24:57.095Z,17.35
2023-06-17T04:27:23.866Z,17.48
2023-06-17T04:29:50.428Z,17.47
2023-06-17T04:32:17.012Z,17.53
2023-06-17T04:34:49.491Z,17.51
2023-06-17T04:37:16.167Z,17.61
2023-06-17T04:39:43.208Z,17.63
2023-06-17T04:42:17.383Z,17.67
2023-06-17T04:44:44.257Z,17.69
2023-06-17T04:47:13.109Z,17.75
2023-06-17T04:49:42.546Z,17.80
2023-06-17T04:52:12.380Z,17.80
2023-06-17T04:54:39.638Z,17.81
2023-06-17T04:57:09.741Z,17.91
2023-06-17T04:59:36.338Z,18.02
2023-06-17T05:02:03.066Z,18.06
2023-06-17T05:04:29.758Z,18.16
2023-06-17T05:06:56.282Z,18.19
2023-06-17T05:09:23.759Z,18.27
2023-06-17T05:11:50.752Z,18.12
2023-06-17T05:14:17.276Z,18.33
2023-06-17T05:16:43.773Z,18.39
2023-06-17T05:19:10.266Z,18.48
2023-06-17T05:21:36.762Z,18.58
2023-06-17T05:24:04.006Z,18.67
2023-06-17T05:26:30.939Z,18.71
2023-06-17T05:28:58.173Z,18.73
2023-06-17T05:31:24.798Z,18.71
2023-06-17T05:33:51.397Z,18.94
2023-06-17T05:36:17.857Z,18.88
2023-06-17T05:38:44.409Z,18.80
2023-06-17T05:41:10.950Z,18.86
2023-06-17T05:43:37.417Z,18.87
2023-06-17T05:46:03.927Z,19.04
2023-06-17T05:48:30.509Z,19.08
2023-06-17T05:50:57.004Z,19.11
2023-06-17T05:53:23.528Z,19.22
2023-06-17T05:55:50.036Z,19.23
2023-06-17T05:58:16.515Z,19.34
2023-06-17T06:00:42.998Z,19.32
2023-06-17T06:03:09.502Z,19.52
2023-06-17T06:05:36.156Z,19.33
2023-06-17T06:08:02.671Z,19.57
2023-06-17T06:10:29.503Z,19.60
2023-06-17T06:12:56.446Z,19.73
2023-06-17T06:15:23.416Z,19.78
2023-06-17T06:17:50.110Z,19.81
2023-06-17T06:20:16.773Z,19.84
2023-06-17T06:22:43.799Z,20.05
2023-06-17T06:25:10.701Z,20.04
2023-06-17T06:27:37.321Z,20.18
2023-06-17T06:30:04.133Z,20.25
2023-06-17T06:32:30.680Z,20.30
2023-06-17T06:34:57.183Z,20.42
2023-06-17T06:37:23.750Z,20.52
2023-06-17T06:39:50.356Z,20.53
2023-06-17T06:42:16.803Z,20.67
2023-06-17T06:44:43.294Z,20.79
2023-06-17T06:47:09.726Z,20.88
2023-06-17T06:49:36.250Z,20.96
2023-06-17T06:52:02.806Z,20.92
2023-06-17T06:54:29.296Z,21.12
2023-06-17T06:56:56.826Z,21.10
2023-06-17T06:59:23.483Z,21.09
2023-06-17T07:01:49.988Z,21.36
2023-06-17T07:04:16.581Z,21.48
2023-06-17T07:06:43.209Z,21.63
2023-06-17T07:09:09.693Z,21.67
2023-06-17T07:11:36.157Z,21.71
2023-06-17T07:14:02.641Z,21.78
2023-06-17T07:16:29.470Z,21.96
2023-06-17T07:18:56.068Z,21.95
2023-06-17T07:21:22.725Z,22.17
2023-06-17T07:23:49.284Z,22.38
2023-06-17T07:26:29.491Z,22.40
2023-06-17T07:28:56.385Z,22.42
2023-06-17T07:31:23.997Z,22.74
2023-06-17T07:34:00.578Z,22.79
2023-06-17T07:36:27.120Z,22.90
2023-06-17T07:38:53.730Z,22.92
2023-06-17T07:44:02.082Z,23.48
2023-06-17T07:46:28.717Z,23.30
2023-06-17T07:48:55.284Z,23.38
2023-06-17T07:51:21.844Z,23.43
2023-06-17T07:53:48.346Z,23.70
2023-06-17T07:56:14.852Z,23.90
2023-06-17T07:58:42.263Z,24.12
2023-06-17T08:01:08.762Z,24.25
2023-06-17T08:03:35.339Z,24.27
2023-06-17T08:06:02.624Z,24.27
2023-06-17T08:08:29.105Z,24.32
2023-06-17T08:11:03.182Z,24.21
2023-06-17T08:13:29.635Z,24.53
2023-06-17T08:15:56.289Z,24.69
2023-06-17T08:18:22.792Z,24.69
2023-06-17T08:20:49.303Z,24.90
2023-06-17T08:23:15.880Z,25.05
2023-06-17T08:25:42.439Z,25.13
2023-06-17T08:28:09.039Z,25.32
2023-06-17T08:30:52.478Z,24.95
2023-06-17T08:33:19.127Z,25.24
2023-06-17T08:35:45.641Z,25.04
2023-06-17T08:38:12.187Z,25.58
2023-06-17T08:40:39.257Z,25.86
2023-06-17T08:43:06.410Z,26.07
2023-06-17T08:45:33.262Z,26.00
2023-06-17T08:47:59.814Z,26.13
2023-06-17T08:50:28.023Z,26.29
2023-06-17T08:52:55.508Z,26.23
2023-06-17T08:55:22.348Z,26.23
2023-06-17T08:57:51.527Z,26.56
2023-06-17T09:00:18.504Z,26.71
2023-06-17T09:02:48.785Z,26.84
2023-06-17T09:05:15.866Z,26.84
2023-06-17T09:07:42.533Z,26.90
2023-06-17T09:10:11.820Z,27.11
2023-06-17T09:12:38.821Z,26.73
2023-06-17T09:15:09.673Z,27.03
2023-06-17T09:17:38.118Z,27.19
2023-06-17T09:20:12.333Z,27.11
2023-06-17T09:22:41.464Z,27.18
2023-06-17T09:25:15.273Z,26.77
2023-06-17T09:28:02.599Z,27.13
2023-06-17T09:30:36.896Z,27.37
2023-06-17T09:33:04.026Z,27.58
2023-06-17T09:35:36.872Z,27.62
2023-06-17T09:38:04.886Z,27.59
2023-06-17T09:40:34.138Z,27.91
2023-06-17T09:43:16.355Z,28.21
2023-06-17T09:45:51.118Z,28.14
2023-06-17T09:48:18.593Z,28.29
2023-06-17T09:50:45.165Z,28.36
2023-06-17T09:53:12.484Z,28.69
2023-06-17T09:55:39.413Z,29.04
2023-06-17T09:58:06.774Z,29.21
2023-06-17T10:00:33.854Z,29.71
2023-06-17T10:03:02.155Z,29.46
2023-06-17T10:05:28.800Z,29.88
2023-06-17T10:07:56.683Z,30.13
2023-06-17T10:10:24.553Z,30.01
2023-06-17T10:12:52.110Z,30.64
2023-06-17T10:15:20.372Z,31.22
2023-06-17T10:17:48.024Z,31.34
2023-06-17T10:20:15.781Z,31.63
2023-06-17T10:22:43.794Z,32.00
2023-06-17T10:25:11.453Z,31.89
2023-06-17T10:27:38.456Z,32.08
2023-06-17T10:30:24.853Z,32.10
2023-06-17T10:32:59.289Z,32.07
2023-06-17T10:35:40.460Z,32.10
2023-06-17T10:38:08.167Z,31.65
2023-06-17T10:40:37.349Z,32.36
2023-06-17T10:43:03.784Z,32.85
2023-06-17T10:45:35.747Z,32.61
2023-06-17T10:48:17.927Z,32.33
2023-06-17T10:50:48.711Z,32.94
2023-06-17T10:53:17.956Z,33.08
2023-06-17T10:55:44.998Z,33.05
2023-06-17T10:58:11.496Z,33.18
2023-06-17T11:00:38.064Z,33.09
2023-06-17T11:03:06.005Z,33.29
2023-06-17T11:05:37.062Z,33.00
2023-06-17T11:08:04.551Z,33.56
2023-06-17T11:10:31.337Z,33.23
2023-06-17T11:12:58.275Z,33.49
2023-06-17T11:15:25.191Z,33.19
2023-06-17T11:18:02.112Z,33.64
2023-06-17T11:20:34.135Z,33.41
2023-06-17T11:23:00.898Z,33.73
2023-06-17T11:25:43.635Z,33.46
2023-06-17T11:28:12.496Z,33.06
2023-06-17T11:30:41.507Z,32.45
2023-06-17T11:33:09.439Z,32.15
2023-06-17T11:35:38.145Z,32.08
2023-06-17T11:38:05.795Z,32.20
2023-06-17T11:40:32.302Z,32.24
2023-06-17T11:42:59.103Z,32.14
2023-06-17T11:45:26.113Z,31.84
2023-06-17T11:47:52.683Z,31.66
2023-06-17T11:50:19.925Z,31.53
2023-06-17T11:52:57.782Z,31.45
2023-06-17T11:55:36.953Z,31.22
2023-06-17T11:58:07.003Z,31.35
2023-06-17T12:00:37.723Z,31.07
2023-06-17T12:03:04.651Z,30.75
2023-06-17T12:05:32.634Z,30.85
2023-06-17T12:08:02.700Z,31.02
2023-06-17T12:10:29.277Z,31.25
2023-06-17T12:12:57.239Z,31.63
2023-06-17T12:18:10.557Z,32.28
2023-06-17T12:20:37.820Z,32.94
2023-06-17T12:23:05.019Z,33.22
2023-06-17T12:25:35.458Z,33.41
2023-06-17T12:28:04.783Z,33.87
2023-06-17T12:30:31.273Z,34.46
2023-06-17T12:32:58.354Z,34.82
2023-06-17T12:35:25.769Z,35.16
2023-06-17T12:37:55.643Z,35.76
2023-06-17T12:40:22.139Z,35.35
2023-06-17T12:42:48.581Z,35.54
2023-06-17T12:45:15.040Z,35.45
2023-06-17T12:47:42.114Z,35.71
2023-06-17T12:50:09.206Z,35.59
2023-06-17T12:52:35.870Z,35.55
2023-06-17T12:55:02.758Z,35.68
2023-06-17T12:57:29.981Z,35.67
2023-06-17T12:59:56.634Z,35.66
2023-06-17T13:02:25.790Z,36.06
2023-06-17T13:04:52.408Z,36.79
2023-06-17T13:07:20.643Z,37.15
2023-06-17T13:09:47.248Z,37.38
2023-06-17T13:12:14.840Z,37.61
2023-06-17T13:14:41.325Z,37.90
2023-06-17T13:17:08.083Z,38.31
2023-06-17T13:19:34.642Z,37.54
2023-06-17T13:22:01.117Z,37.61
2023-06-17T13:24:28.333Z,37.98
2023-06-17T13:26:55.641Z,37.82
2023-06-17T13:29:22.802Z,38.29
2023-06-17T13:31:49.336Z,38.46
2023-06-17T13:34:15.926Z,38.67
2023-06-17T13:36:46.134Z,38.33
2023-06-17T13:39:14.475Z,38.19
2023-06-17T13:41:41.190Z,38.63
2023-06-17T13:44:09.094Z,38.92
2023-06-17T13:46:36.274Z,39.11
2023-06-17T13:49:04.164Z,39.16
2023-06-17T13:51:30.738Z,38.78
2023-06-17T13:53:57.632Z,38.56
2023-06-17T13:56:25.444Z,38.47
2023-06-17T13:58:51.927Z,38.30
2023-06-17T14:01:18.509Z,38.07
2023-06-17T14:03:45.086Z,38.10
2023-06-17T14:06:11.772Z,37.60
2023-06-17T14:08:38.341Z,37.54
2023-06-17T14:11:04.803Z,36.80
2023-06-17T14:13:31.500Z,36.51
2023-06-17T14:15:58.108Z,36.65
2023-06-17T14:18:24.627Z,36.55
2023-06-17T14:20:51.107Z,36.67
2023-06-17T14:23:17.572Z,36.14
2023-06-17T14:25:44.062Z,36.78
2023-06-17T14:28:10.550Z,36.58
2023-06-17T14:30:37.356Z,36.37
2023-06-17T14:33:04.031Z,36.14
2023-06-17T14:35:30.828Z,35.79
2023-06-17T14:37:57.319Z,35.71
2023-06-17T14:40:24.040Z,35.46
2023-06-17T14:42:50.837Z,35.43
2023-06-17T14:45:17.571Z,35.51
2023-06-17T14:47:45.111Z,35.68
2023-06-17T14:50:12.726Z,35.76
2023-06-17T14:52:39.489Z,35.60
2023-06-17T14:55:06.631Z,35.84
2023-06-17T14:57:33.893Z,35.69
2023-06-17T15:00:00.901Z,35.47
2023-06-17T15:02:46.155Z,35.55
2023-06-17T15:05:13.236Z,35.27
2023-06-17T15:07:39.672Z,35.44
2023-06-17T15:10:06.998Z,35.17
2023-06-17T15:12:33.602Z,35.27
2023-06-17T15:15:00.133Z,35.28
2023-06-17T15:17:27.140Z,35.43
2023-06-17T15:19:53.651Z,35.41
2023-06-17T15:22:20.263Z,35.34
2023-06-17T15:24:46.721Z,35.15
2023-06-17T15:27:13.241Z,34.95
2023-06-17T15:29:40.372Z,35.02
2023-06-17T15:32:07.279Z,34.68
2023-06-17T15:34:33.782Z,34.73
2023-06-17T15:37:00.332Z,34.40
2023-06-17T15:39:29.042Z,34.19
2023-06-17T15:41:55.750Z,34.28
2023-06-17T15:44:22.918Z,34.30
2023-06-17T15:46:50.182Z,34.29
2023-06-17T15:49:16.831Z,34.09
2023-06-17T15:51:43.332Z,33.90
2023-06-17T15:54:09.919Z,33.83
2023-06-17T15:56:37.656Z,33.68
2023-06-17T15:59:04.856Z,33.83
2023-06-17T16:01:31.451Z,33.84
2023-06-17T16:03:58.457Z,33.65
2023-06-17T16:06:25.012Z,33.84
2023-06-17T16:08:52.361Z,33.80
2023-06-17T16:11:19.616Z,33.38
2023-06-17T16:13:46.260Z,33.48
2023-06-17T16:16:12.876Z,33.05
2023-06-17T16:18:39.707Z,32.50
2023-06-17T16:21:06.207Z,32.52
2023-06-17T16:23:32.752Z,32.71
2023-06-17T16:26:00.006Z,32.41
2023-06-17T16:28:26.463Z,32.40
2023-06-17T16:30:52.950Z,32.21
2023-06-17T16:33:19.484Z,32.13
2023-06-17T16:35:45.955Z,31.97
2023-06-17T16:38:12.440Z,32.07
2023-06-17T16:40:38.946Z,31.97
2023-06-17T16:43:05.431Z,31.99
2023-06-17T16:45:32.034Z,31.87
2023-06-17T16:47:58.641Z,31.82
2023-06-17T16:50:25.298Z,31.74
2023-06-17T16:52:51.943Z,31.60
2023-06-17T16:55:18.553Z,31.45
2023-06-17T16:57:45.062Z,31.32
2023-06-17T17:00:12.672Z,31.10
2023-06-17T17:02:39.484Z,31.22
2023-06-17T17:05:06.586Z,31.25
2023-06-17T17:07:33.092Z,31.21
2023-06-17T17:09:59.590Z,30.98
2023-06-17T17:12:26.054Z,30.95
2023-06-17T17:14:52.708Z,30.78
2023-06-17T17:17:19.181Z,30.64
2023-06-17T17:19:45.668Z,30.71
2023-06-17T17:22:12.165Z,30.55
2023-06-17T17:24:39.024Z,30.45
2023-06-17T17:27:07.816Z,30.47
2023-06-17T17:29:35.271Z,30.13
2023-06-17T17:32:01.849Z,30.27
2023-06-17T17:34:28.323Z,30.28
2023-06-17T17:36:54.794Z,30.24
2023-06-17T17:39:21.211Z,30.18
2023-06-17T17:41:47.726Z,29.92
2023-06-17T17:44:14.216Z,29.93
2023-06-17T17:46:40.875Z,29.93
2023-06-17T17:49:07.441Z,29.76
2023-06-17T17:51:33.901Z,29.71
2023-06-17T17:54:00.569Z,29.53
2023-06-17T17:56:27.402Z,29.37
2023-06-17T17:58:53.890Z,29.11
2023-06-17T18:01:20.547Z,29.04
2023-06-17T18:03:47.534Z,29.12
2023-06-17T18:06:14.102Z,28.95
2023-06-17T18:08:40.597Z,28.84
2023-06-17T18:11:07.090Z,28.85
2023-06-17T18:13:33.657Z,28.82
2023-06-17T18:16:00.350Z,28.84
2023-06-17T18:18:26.951Z,28.63
2023-06-17T18:20:53.441Z,28.59
2023-06-17T18:23:19.942Z,28.54
2023-06-17T18:25:46.437Z,28.45
2023-06-17T18:28:12.971Z,28.32
2023-06-17T18:30:40.468Z,28.33
2023-06-17T18:33:07.048Z,28.21
2023-06-17T18:35:34.248Z,28.05
2023-06-17T18:38:00.745Z,27.97
2023-06-17T18:40:27.203Z,27.77
2023-06-17T18:42:53.733Z,27.66
2023-06-17T18:45:20.238Z,27.55
2023-06-17T18:47:47.478Z,27.47
2023-06-17T18:50:14.060Z,27.42
2023-06-17T18:52:40.576Z,27.34
2023-06-17T18:55:07.441Z,27.24
2023-06-17T18:57:33.923Z,27.28
2023-06-17T19:00:00.548Z,27.15
2023-06-17T19:02:28.104Z,27.03
2023-06-17T19:04:54.780Z,27.12
2023-06-17T19:07:21.259Z,27.03
2023-06-17T19:09:48.748Z,26.98
2023-06-17T19:12:15.347Z,26.90
2023-06-17T19:14:41.872Z,26.85
2023-06-17T19:17:08.415Z,26.80
2023-06-17T19:19:34.932Z,26.70
2023-06-17T19:22:01.456Z,26.55
2023-06-17T19:24:27.999Z,26.57
2023-06-17T19:26:54.526Z,26.48
2023-06-17T19:29:21.065Z,26.44
2023-06-17T19:31:47.559Z,26.37
2023-06-17T19:34:14.062Z,26.13
2023-06-17T19:36:40.752Z,26.24
2023-06-17T19:39:07.260Z,26.13
2023-06-17T19:41:33.801Z,26.07
2023-06-17T19:44:00.321Z,26.10
2023-06-17T19:46:26.922Z,25.94
2023-06-17T19:48:53.458Z,25.76
2023-06-17T19:51:19.904Z,25.79
2023-06-17T19:53:46.439Z,25.65
2023-06-17T19:56:13.194Z,25.75
2023-06-17T19:58:39.721Z,25.65
2023-06-17T20:01:06.537Z,25.58
2023-06-17T20:03:33.162Z,25.50
2023-06-17T20:06:00.944Z,25.36
2023-06-17T20:08:27.533Z,25.33
2023-06-17T20:10:54.030Z,25.33
2023-06-17T20:13:20.552Z,25.19
2023-06-17T20:15:47.669Z,25.13
2023-06-17T20:18:14.353Z,25.04
2023-06-17T20:20:41.070Z,25.14
2023-06-17T20:23:07.692Z,24.99
2023-06-17T20:25:34.138Z,25.08
2023-06-17T20:28:00.679Z,25.08
2023-06-17T20:30:27.140Z,25.03
2023-06-17T20:32:53.676Z,24.95
2023-06-17T20:35:20.328Z,24.85
2023-06-17T20:37:47.246Z,24.95
2023-06-17T20:40:13.741Z,24.85
2023-06-17T20:42:40.364Z,24.71
2023-06-17T20:45:08.347Z,24.76
2023-06-17T20:47:34.998Z,24.78
2023-06-17T20:50:01.505Z,24.74
2023-06-17T20:52:28.080Z,24.60
2023-06-17T20:54:54.595Z,24.64
2023-06-17T20:57:21.130Z,24.67
2023-06-17T20:59:47.881Z,24.58
2023-06-17T21:02:16.337Z,24.48
2023-06-17T21:04:43.019Z,24.64
2023-06-17T21:07:09.470Z,24.63
2023-06-17T21:09:36.667Z,24.60
2023-06-17T21:12:03.623Z,24.59
2023-06-17T21:14:32.765Z,24.52
2023-06-17T21:16:59.440Z,24.39
2023-06-17T21:19:25.947Z,24.51
2023-06-17T21:21:52.468Z,24.50
2023-06-17T21:24:20.482Z,24.41
2023-06-17T21:26:47.080Z,24.37
2023-06-17T21:29:13.536Z,24.39
2023-06-17T21:31:39.995Z,24.43
2023-06-17T21:34:06.623Z,24.28
2023-06-17T21:36:33.121Z,24.21
2023-06-17T21:38:59.573Z,24.08
2023-06-17T21:41:27.224Z,24.15
2023-06-17T21:43:53.779Z,24.15
2023-06-17T21:46:25.018Z,24.14
2023-06-17T21:48:51.938Z,24.29
2023-06-17T21:51:18.577Z,24.27
2023-06-17T21:53:45.113Z,24.14
2023-06-17T21:56:12.894Z,24.12
2023-06-17T21:58:41.557Z,24.05
2023-06-17T22:01:08.152Z,24.06
2023-06-17T22:03:34.791Z,24.06
2023-06-17T22:06:01.923Z,24.11
2023-06-17T22:08:41.391Z,24.02
2023-06-17T22:11:10.286Z,24.03
2023-06-17T22:13:36.776Z,24.07
2023-06-17T22:16:03.498Z,24.05
2023-06-17T22:18:31.460Z,24.00
2023-06-17T22:20:58.024Z,23.95
2023-06-17T22:23:24.501Z,23.87
2023-06-17T22:25:51.001Z,23.98
2023-06-17T22:28:18.394Z,23.75
2023-06-17T22:30:44.886Z,24.03
2023-06-17T22:33:11.424Z,24.01
2023-06-17T22:35:37.963Z,23.89
2023-06-17T22:38:04.719Z,23.96
2023-06-17T22:40:31.192Z,23.88
2023-06-17T22:42:57.669Z,23.72
2023-06-17T22:45:24.163Z,23.68
2023-06-17T22:47:50.691Z,23.63
2023-06-17T22:50:17.184Z,23.57
2023-06-17T22:52:43.688Z,23.45
2023-06-17T22:55:10.246Z,23.65
2023-06-17T22:57:39.166Z,23.54
2023-06-17T23:00:06.892Z,23.52
2023-06-17T23:02:33.761Z,23.58
2023-06-17T23:05:00.702Z,23.65
2023-06-17T23:07:27.238Z,23.67
2023-06-17T23:09:53.727Z,23.64
2023-06-17T23:12:20.169Z,23.60
2023-06-17T23:14:46.825Z,23.45
2023-06-17T23:17:13.328Z,23.33
2023-06-17T23:19:39.831Z,23.29
2023-06-17T23:22:07.436Z,23.32
2023-06-17T23:24:34.127Z,23.37
2023-06-17T23:27:00.760Z,23.33
2023-06-17T23:29:27.194Z,23.34
2023-06-17T23:31:53.690Z,23.41
2023-06-17T23:34:20.422Z,23.45
2023-06-17T23:36:46.942Z,23.21
2023-06-17T23:39:13.655Z,23.48
2023-06-17T23:41:40.140Z,23.46
2023-06-17T23:44:07.052Z,23.50
2023-06-17T23:46:33.616Z,23.43
2023-06-17T23:49:00.497Z,23.44
2023-06-17T23:51:27.020Z,23.37
2023-06-17T23:53:53.529Z,23.23
2023-06-17T23:56:20.104Z,23.14
2023-06-17T23:58:46.635Z,23.12
